Bushnell, South Dakota
Current Conditions -  °F | °C
As of 9:14 PM on Sunday 23 Nov 2014 (Local Time) from KCNB Reporting Station
Overcast Overcast  
Wind Chill: 13°   Ceiling: 1900
Heat Index: 28°   Visibility: 10mi
Dew Point: 22°   Wind: 24mph
Humidity: 80%   Direction: 310°NW
Pressure: 29.54"   Gusts: 30mph
Location:  44.4253°N, 96.5963°W
Report Text: KCNB 240314Z AUTO 31021G26KT 10SM OVC019 M02/M06 A2954 RMK AO2 T10251056
Loading
Personal Weather Stations






























Interactive Weather Map New forecast layout! Learn more

10-Day Weather Forecast

Advertisements
Track Severe Weather on mobile